createdAt,value
2018-09-28T00:01:44.037Z,8.60
2018-09-28T00:06:47.905Z,8.40
2018-09-28T00:11:51.772Z,8.40
2018-09-28T00:16:55.624Z,8.40
2018-09-28T00:21:59.495Z,8.20
2018-09-28T00:27:03.355Z,8.30
2018-09-28T00:32:07.304Z,8.30
2018-09-28T00:37:11.208Z,8.30
2018-09-28T00:42:15.088Z,8.20
2018-09-28T00:47:18.960Z,8.20
2018-09-28T00:57:26.406Z,8.10
2018-09-28T01:02:30.287Z,7.90
2018-09-28T01:07:34.160Z,7.90
2018-09-28T01:12:38.036Z,7.80
2018-09-28T01:17:41.903Z,7.90
2018-09-28T01:27:49.405Z,7.80
2018-09-28T01:32:53.291Z,7.80
2018-09-28T01:37:57.185Z,7.90
2018-09-28T01:43:01.076Z,7.50
2018-09-28T01:58:12.591Z,7.50
2018-09-28T02:03:16.484Z,7.60
2018-09-28T02:08:20.344Z,7.60
2018-09-28T02:13:24.225Z,7.50
2018-09-28T02:18:28.120Z,7.40
2018-09-28T02:23:32.009Z,7.30
2018-09-28T02:28:36.393Z,7.30
2018-09-28T02:33:40.251Z,7.20
2018-09-28T02:38:44.176Z,7.20
2018-09-28T02:43:48.055Z,7.20
2018-09-28T02:53:55.477Z,7.20
2018-09-28T02:58:59.381Z,7.00
2018-09-28T03:04:04.180Z,7.00
2018-09-28T03:09:08.981Z,7.10
2018-09-28T03:19:16.428Z,7.00
2018-09-28T03:24:27.044Z,6.90
2018-09-28T03:29:30.921Z,6.90
2018-09-28T03:34:34.772Z,7.00
2018-09-28T03:44:42.283Z,6.60
2018-09-28T03:49:46.168Z,6.50
2018-09-28T03:54:50.032Z,6.60
2018-09-28T03:59:53.905Z,6.60
2018-09-28T04:04:57.784Z,6.70
2018-09-28T04:15:05.295Z,6.80
2018-09-28T04:20:09.192Z,7.00
2018-09-28T04:25:13.093Z,6.80
2018-09-28T04:35:20.485Z,6.80
2018-09-28T04:40:24.376Z,6.80
2018-09-28T04:45:28.268Z,6.70
2018-09-28T04:50:32.132Z,6.80
2018-09-28T04:55:36.404Z,6.70
2018-09-28T05:00:41.096Z,6.70
2018-09-28T05:05:44.974Z,6.70
2018-09-28T05:10:48.861Z,6.70
2018-09-28T05:15:52.735Z,6.60
2018-09-28T05:20:56.633Z,6.60
2018-09-28T05:26:00.495Z,6.60
2018-09-28T05:31:06.839Z,6.70
2018-09-28T05:36:10.680Z,6.80
2018-09-28T05:41:14.552Z,7.10
2018-09-28T05:46:18.532Z,7.30
2018-09-28T05:51:22.378Z,7.50
2018-09-28T05:56:26.216Z,8.10
2018-09-28T06:06:39.140Z,8.30
2018-09-28T06:11:43.021Z,8.30
2018-09-28T06:16:47.069Z,8.80
2018-09-28T06:21:52.892Z,9.30
2018-09-28T06:26:56.792Z,9.30
2018-09-28T06:32:00.684Z,10.00
2018-09-28T06:37:04.592Z,10.40
2018-09-28T06:42:08.490Z,10.80
2018-09-28T06:47:12.380Z,11.20
2018-09-28T06:52:16.296Z,11.70
2018-09-28T06:57:20.876Z,11.90
2018-09-28T07:02:24.759Z,12.10
2018-09-28T07:07:28.609Z,12.40
2018-09-28T07:12:32.500Z,13.10
2018-09-28T07:17:36.359Z,13.30
2018-09-28T07:22:40.277Z,13.50
2018-09-28T07:27:44.140Z,13.90
2018-09-28T07:32:47.996Z,13.60
2018-09-28T07:37:51.877Z,14.70
2018-09-28T07:42:55.769Z,13.60
2018-09-28T07:47:59.685Z,13.70
2018-09-28T07:53:03.510Z,13.70
2018-09-28T07:58:07.402Z,14.50
2018-09-28T08:03:11.307Z,15.50
2018-09-28T08:08:15.178Z,16.40
2018-09-28T08:13:19.280Z,16.80
2018-09-28T08:18:23.241Z,17.00
2018-09-28T08:23:27.241Z,17.00
2018-09-28T08:28:31.950Z,16.20
2018-09-28T08:33:35.869Z,14.00
2018-09-28T08:38:39.788Z,13.90
2018-09-28T08:43:43.775Z,14.00
2018-09-28T08:48:49.490Z,15.00
2018-09-28T08:53:53.362Z,15.70
2018-09-28T08:58:57.262Z,15.90
2018-09-28T09:04:01.243Z,15.90
2018-09-28T09:09:08.406Z,16.10
2018-09-28T09:14:12.275Z,16.20
2018-09-28T09:19:16.491Z,16.20
2018-09-28T09:24:20.410Z,16.40
2018-09-28T09:29:24.753Z,16.60
2018-09-28T09:34:28.657Z,16.50
2018-09-28T09:39:32.637Z,16.50
2018-09-28T09:44:36.548Z,16.80
2018-09-28T09:49:40.481Z,17.30
2018-09-28T09:54:44.353Z,18.10
2018-09-28T09:59:48.680Z,18.50
2018-09-28T10:04:52.583Z,19.20
2018-09-28T10:09:56.960Z,20.00
2018-09-28T10:15:00.852Z,20.80
2018-09-28T10:20:04.826Z,20.90
2018-09-28T10:25:08.801Z,20.10
2018-09-28T10:30:12.650Z,20.50
2018-09-28T10:35:16.537Z,20.10
2018-09-28T10:40:20.537Z,21.70
2018-09-28T10:45:24.412Z,22.30
2018-09-28T10:50:28.269Z,23.40
2018-09-28T10:55:35.348Z,24.00
2018-09-28T11:00:39.237Z,24.20
2018-09-28T11:05:43.125Z,24.70
2018-09-28T11:10:47.071Z,24.00
2018-09-28T11:15:51.243Z,24.10
2018-09-28T11:20:55.092Z,24.50
2018-09-28T11:25:58.987Z,24.80
2018-09-28T11:31:02.952Z,24.40
2018-09-28T11:36:07.084Z,24.30
2018-09-28T11:41:10.966Z,23.60
2018-09-28T11:46:14.834Z,24.00
2018-09-28T11:51:18.817Z,23.50
2018-09-28T11:56:22.709Z,23.10
2018-09-28T12:01:26.596Z,23.00
2018-09-28T12:06:30.564Z,22.20
2018-09-28T12:11:34.377Z,22.10
2018-09-28T12:16:38.260Z,22.70
2018-09-28T12:21:42.239Z,23.90
2018-09-28T12:26:46.032Z,24.60
2018-09-28T12:31:49.953Z,24.50
2018-09-28T12:36:54.526Z,25.20
2018-09-28T12:41:58.433Z,25.80
2018-09-28T12:47:02.319Z,25.50
2018-09-28T12:52:06.345Z,26.90
2018-09-28T12:57:10.236Z,27.60
2018-09-28T13:02:14.166Z,26.30
2018-09-28T13:07:18.040Z,25.30
2018-09-28T13:12:21.964Z,25.60
2018-09-28T13:17:25.816Z,26.40
2018-09-28T13:22:29.717Z,25.60
2018-09-28T13:27:33.644Z,25.20
2018-09-28T13:32:37.805Z,24.40
2018-09-28T13:37:41.709Z,23.00
2018-09-28T13:47:49.134Z,23.10
2018-09-28T13:52:53.352Z,23.30
2018-09-28T13:57:57.185Z,23.30
2018-09-28T14:03:02.101Z,23.50
2018-09-28T14:08:07.191Z,23.70
2018-09-28T14:13:11.068Z,24.50
2018-09-28T14:18:16.421Z,25.20
2018-09-28T14:23:20.333Z,25.30
2018-09-28T14:28:24.295Z,26.70
2018-09-28T14:33:28.158Z,26.70
2018-09-28T14:38:32.101Z,25.90
2018-09-28T14:43:35.917Z,25.90
2018-09-28T14:48:39.907Z,27.30
2018-09-28T14:53:43.781Z,27.80
2018-09-28T14:58:47.742Z,27.50
2018-09-28T15:03:51.557Z,26.30
2018-09-28T15:08:55.481Z,24.90
2018-09-28T15:13:59.383Z,24.30
2018-09-28T15:19:03.331Z,23.80
2018-09-28T15:24:07.515Z,23.30
2018-09-28T15:29:11.380Z,22.50
2018-09-28T15:34:15.264Z,23.20
2018-09-28T15:39:19.364Z,23.10
2018-09-28T15:44:23.247Z,22.80
2018-09-28T15:49:27.121Z,22.70
2018-09-28T15:54:31.016Z,22.70
2018-09-28T16:04:41.682Z,20.80
2018-09-28T16:09:45.585Z,20.40
2018-09-28T16:14:49.488Z,20.20
2018-09-28T16:35:03.983Z,19.30
2018-09-28T16:40:07.882Z,19.10
2018-09-28T16:45:11.749Z,18.80
2018-09-28T16:55:20.624Z,18.20
2018-09-28T17:00:24.524Z,18.00
2018-09-28T17:05:28.440Z,18.00
2018-09-28T17:10:32.321Z,17.80
2018-09-28T17:15:36.195Z,17.50
2018-09-28T17:20:40.085Z,17.50
2018-09-28T17:25:45.044Z,17.20
2018-09-28T17:30:48.912Z,17.20
2018-09-28T17:35:52.835Z,16.80
2018-09-28T17:46:00.269Z,16.60
2018-09-28T17:51:04.129Z,16.50
2018-09-28T18:01:18.061Z,16.30
2018-09-28T18:06:21.962Z,16.20
2018-09-28T18:16:29.535Z,15.90
2018-09-28T18:21:34.100Z,15.80
2018-09-28T18:31:41.518Z,15.60
2018-09-28T18:36:45.536Z,15.50
2018-09-28T18:41:49.448Z,15.50
2018-09-28T18:46:53.324Z,15.40
2018-09-28T18:51:57.195Z,15.50
2018-09-28T18:57:01.102Z,15.50
2018-09-28T19:02:05.013Z,15.40
2018-09-28T19:17:16.430Z,15.30
2018-09-28T19:22:27.016Z,15.20
2018-09-28T19:27:30.897Z,15.00
2018-09-28T19:32:34.798Z,14.90
2018-09-28T19:42:42.536Z,14.80
2018-09-28T19:47:46.390Z,14.70
2018-09-28T19:52:50.249Z,14.60
2018-09-28T19:57:54.163Z,14.50
2018-09-28T20:02:58.068Z,14.50
2018-09-28T20:23:12.696Z,14.20
2018-09-28T20:33:20.456Z,14.20
2018-09-28T20:43:29.647Z,14.10
2018-09-28T20:48:33.505Z,14.20
2018-09-28T20:53:37.375Z,14.10
2018-09-28T20:58:41.269Z,14.10
2018-09-28T21:03:45.132Z,13.90
2018-09-28T21:08:49.034Z,13.90
2018-09-28T21:13:52.924Z,13.90
2018-09-28T21:18:56.841Z,13.90
2018-09-28T21:24:00.757Z,13.80
2018-09-28T21:29:05.003Z,13.80
2018-09-28T21:34:08.843Z,13.80
2018-09-28T21:39:12.740Z,13.70
2018-09-28T21:44:16.625Z,13.70
2018-09-28T21:49:20.528Z,13.60
2018-09-28T21:54:24.518Z,13.40
2018-09-28T21:59:29.173Z,13.30
2018-09-28T22:04:33.126Z,13.10
2018-09-28T22:09:36.940Z,12.90
2018-09-28T22:14:40.870Z,12.70
2018-09-28T22:19:44.753Z,12.70
2018-09-28T22:24:48.619Z,12.60
2018-09-28T22:29:53.892Z,12.60
2018-09-28T22:34:57.756Z,12.50
2018-09-28T22:40:01.653Z,12.30
2018-09-28T22:45:05.568Z,12.20
2018-09-28T22:50:09.449Z,12.20
2018-09-28T22:55:13.380Z,12.20
2018-09-28T23:00:17.241Z,12.20
2018-09-28T23:05:21.127Z,12.20
2018-09-28T23:10:25.060Z,12.20
2018-09-28T23:15:28.936Z,12.20
2018-09-28T23:20:32.852Z,12.20
2018-09-28T23:25:36.756Z,12.20
2018-09-28T23:30:40.657Z,12.10
2018-09-28T23:35:44.533Z,12.10
2018-09-28T23:40:48.420Z,12.00
2018-09-28T23:45:52.271Z,12.00
2018-09-28T23:50:56.152Z,11.90
2018-09-28T23:56:00.037Z,11.90
